createdAt,value
2023-01-26T00:04:19.023Z,12.32
2023-01-26T00:09:21.312Z,11.18
2023-01-26T00:14:23.506Z,11.55
2023-01-26T00:19:25.751Z,11.57
2023-01-26T00:24:27.909Z,11.75
2023-01-26T00:29:30.146Z,11.73
2023-01-26T00:34:32.348Z,12.13
2023-01-26T00:39:34.582Z,11.65
2023-01-26T00:44:38.744Z,11.50
2023-01-26T00:49:40.998Z,12.32
2023-01-26T00:54:43.235Z,12.60
2023-01-26T00:59:45.468Z,12.20
2023-01-26T01:04:47.705Z,11.38
2023-01-26T01:09:49.934Z,11.63
2023-01-26T01:14:52.205Z,11.73
2023-01-26T01:19:54.429Z,13.88
2023-01-26T01:24:57.127Z,11.52
2023-01-26T01:29:59.389Z,11.95
2023-01-26T01:35:01.767Z,13.13
2023-01-26T01:40:04.441Z,12.85
2023-01-26T01:50:39.966Z,12.43
2023-01-26T01:55:42.772Z,12.98
2023-01-26T02:00:45.203Z,12.63
2023-01-26T02:11:09.708Z,12.55
2023-01-26T02:16:12.175Z,12.50
2023-01-26T02:21:17.534Z,11.80
2023-01-26T02:31:29.805Z,13.52
2023-01-26T02:36:34.252Z,13.02
2023-01-26T02:41:56.476Z,12.35
2023-01-26T02:46:59.023Z,12.10
2023-01-26T02:52:01.904Z,13.40
2023-01-26T02:57:04.198Z,11.65
2023-01-26T03:02:07.166Z,12.63
2023-01-26T03:07:09.604Z,13.52
2023-01-26T03:12:13.145Z,13.70
2023-01-26T03:17:15.417Z,13.77
2023-01-26T03:22:37.572Z,14.55
2023-01-26T03:27:44.824Z,18.73
2023-01-26T03:32:48.748Z,14.88
2023-01-26T03:37:54.961Z,14.55
2023-01-26T03:43:31.636Z,13.18
2023-01-26T03:48:54.013Z,12.55
2023-01-26T03:54:16.225Z,12.82
2023-01-26T03:59:38.110Z,18.52
2023-01-26T04:05:03.422Z,14.85
2023-01-26T04:10:10.331Z,16.02
2023-01-26T04:15:32.785Z,14.30
2023-01-26T04:20:56.491Z,15.60
2023-01-26T04:25:58.793Z,16.13
2023-01-26T04:31:04.698Z,15.60
2023-01-26T04:36:10.992Z,14.90
2023-01-26T04:41:18.444Z,15.57
2023-01-26T04:46:25.313Z,15.45
2023-01-26T04:51:28.416Z,14.68
2023-01-26T04:56:33.847Z,16.08
2023-01-26T05:01:36.802Z,16.77
2023-01-26T05:06:43.026Z,14.85
2023-01-26T05:11:45.994Z,15.10
2023-01-26T05:17:05.814Z,17.10
2023-01-26T05:22:22.914Z,18.00
2023-01-26T05:27:45.162Z,18.13
2023-01-26T05:32:47.545Z,31.83
2023-01-26T05:37:51.027Z,21.02
2023-01-26T05:42:54.594Z,20.38
2023-01-26T05:48:09.594Z,20.70
2023-01-26T05:53:12.046Z,23.45
2023-01-26T05:58:14.868Z,23.38
2023-01-26T06:03:17.181Z,20.92
2023-01-26T06:08:20.543Z,21.25
2023-01-26T06:13:35.318Z,22.70
2023-01-26T06:18:50.746Z,24.23
2023-01-26T06:23:53.812Z,24.15
2023-01-26T06:28:56.576Z,24.98
2023-01-26T06:34:01.427Z,24.15
2023-01-26T06:39:04.185Z,26.10
2023-01-26T06:44:06.521Z,27.88
2023-01-26T06:49:09.932Z,28.17
2023-01-26T06:54:14.059Z,27.98
2023-01-26T06:59:37.565Z,31.05
2023-01-26T07:04:59.771Z,29.58
2023-01-26T07:10:02.675Z,29.40
2023-01-26T07:15:05.231Z,27.55
2023-01-26T07:20:08.634Z,26.77
2023-01-26T07:25:11.215Z,26.35
2023-01-26T07:30:14.537Z,29.70
2023-01-26T07:35:17.090Z,26.35
2023-01-26T07:40:19.499Z,26.40
2023-01-26T07:45:21.838Z,25.73
2023-01-26T07:50:25.891Z,27.25
2023-01-26T07:55:28.207Z,30.67
2023-01-26T08:00:30.466Z,29.83
2023-01-26T08:05:33.526Z,28.45
2023-01-26T08:10:35.950Z,28.33
2023-01-26T08:15:38.983Z,27.50
2023-01-26T08:20:41.192Z,29.88
2023-01-26T08:25:43.406Z,31.00
2023-01-26T08:30:45.681Z,29.55
2023-01-26T08:35:48.020Z,33.53
2023-01-26T08:40:53.041Z,32.40
2023-01-26T08:45:55.438Z,36.97
2023-01-26T08:51:00.189Z,34.33
2023-01-26T08:56:04.056Z,33.97
2023-01-26T09:01:10.839Z,34.22
2023-01-26T09:06:14.804Z,35.97
2023-01-26T09:11:17.148Z,33.92
2023-01-26T09:16:20.764Z,35.28
2023-01-26T09:21:24.340Z,31.63
2023-01-26T09:26:27.085Z,31.13
2023-01-26T09:31:30.071Z,32.08
2023-01-26T09:36:33.469Z,31.90
2023-01-26T09:52:18.541Z,29.17
2023-01-26T09:57:29.705Z,26.00
2023-01-26T10:07:45.409Z,15.90
2023-01-26T10:12:51.551Z,14.65
2023-01-26T10:17:55.217Z,16.15
2023-01-26T10:23:04.729Z,13.70
2023-01-26T10:28:14.400Z,14.60
2023-01-26T10:33:24.872Z,16.98
2023-01-26T10:43:57.856Z,15.32
2023-01-26T11:04:42.248Z,15.65
2023-01-26T11:09:44.583Z,13.68
2023-01-26T11:15:06.454Z,19.35
2023-01-26T11:25:32.061Z,16.50
2023-01-26T11:51:33.253Z,14.43
2023-01-26T12:07:33.559Z,15.50
2023-01-26T12:12:50.691Z,14.77
2023-01-26T12:28:35.041Z,13.32
2023-01-26T12:33:38.561Z,14.15
2023-01-26T12:39:20.486Z,13.93
2023-01-26T12:49:51.444Z,15.13
2023-01-26T12:55:00.459Z,14.98
2023-01-26T13:00:16.427Z,15.00
2023-01-26T13:05:25.903Z,14.43
2023-01-26T13:10:29.633Z,13.52
2023-01-26T13:15:33.183Z,13.32
2023-01-26T13:31:34.386Z,13.98
2023-01-26T13:36:41.839Z,13.48
2023-01-26T13:41:47.705Z,15.25
2023-01-26T13:47:12.609Z,15.32
2023-01-26T13:57:31.742Z,13.75
2023-01-26T14:02:35.720Z,14.85
2023-01-26T14:07:43.207Z,14.43
2023-01-26T14:12:51.828Z,13.20
2023-01-26T14:18:05.370Z,12.98
2023-01-26T14:28:22.506Z,13.52
2023-01-26T14:33:25.314Z,12.63
2023-01-26T14:38:29.962Z,13.30
2023-01-26T14:43:32.241Z,13.48
2023-01-26T14:48:41.278Z,15.88
2023-01-26T14:53:50.325Z,14.13
2023-01-26T14:58:54.583Z,13.40
2023-01-26T15:04:01.303Z,14.55
2023-01-26T15:09:17.077Z,18.50
2023-01-26T15:14:48.341Z,13.00
2023-01-26T15:19:52.889Z,13.82
2023-01-26T15:30:19.754Z,11.93
2023-01-26T15:40:32.677Z,15.57
2023-01-26T15:45:36.471Z,14.38
2023-01-26T15:50:38.685Z,17.55
2023-01-26T15:55:41.807Z,14.40
2023-01-26T16:00:44.165Z,18.95
2023-01-26T16:05:48.230Z,27.40
2023-01-26T16:10:50.505Z,13.75
2023-01-26T16:15:54.071Z,14.20
2023-01-26T16:20:56.335Z,14.68
2023-01-26T16:25:58.564Z,17.92
2023-01-26T16:31:02.717Z,12.52
2023-01-26T16:36:05.264Z,20.75
2023-01-26T16:41:24.140Z,14.73
2023-01-26T16:46:28.328Z,30.17
2023-01-26T16:51:37.494Z,16.80
2023-01-26T16:56:39.643Z,14.23
2023-01-26T17:01:42.408Z,18.63
2023-01-26T17:06:44.583Z,15.77
2023-01-26T17:11:46.752Z,23.17
2023-01-26T17:16:49.112Z,15.00
2023-01-26T17:21:51.341Z,14.35
2023-01-26T17:26:53.836Z,13.45
2023-01-26T17:31:56.064Z,15.98
2023-01-26T17:37:00.108Z,16.42
2023-01-26T17:42:02.305Z,13.35
2023-01-26T17:47:04.581Z,18.55
2023-01-26T17:52:08.254Z,14.43
2023-01-26T17:57:10.459Z,21.02
2023-01-26T18:02:12.770Z,13.57
2023-01-26T18:07:14.994Z,12.10
2023-01-26T18:12:17.246Z,12.55
2023-01-26T18:17:19.432Z,13.38
2023-01-26T18:22:21.687Z,14.68
2023-01-26T18:27:23.965Z,14.18
2023-01-26T18:32:26.241Z,14.55
2023-01-26T18:37:28.711Z,13.52
2023-01-26T18:42:31.330Z,12.50
2023-01-26T18:47:33.611Z,15.23
2023-01-26T18:52:35.858Z,16.92
2023-01-26T18:57:38.164Z,16.25
2023-01-26T19:02:40.469Z,13.60
2023-01-26T19:07:42.799Z,14.40
2023-01-26T19:12:44.993Z,17.15
2023-01-26T19:17:47.300Z,16.65
2023-01-26T19:22:54.056Z,12.95
2023-01-26T19:27:56.355Z,20.70
2023-01-26T19:33:18.571Z,13.43
2023-01-26T19:38:21.997Z,14.90
2023-01-26T19:43:24.221Z,17.38
2023-01-26T19:48:27.755Z,14.18
2023-01-26T19:53:31.956Z,21.92
2023-01-26T19:58:34.886Z,15.48
2023-01-26T20:03:37.599Z,22.65
2023-01-26T20:08:39.789Z,19.48
2023-01-26T20:13:42.992Z,14.15
2023-01-26T20:18:45.692Z,13.07
2023-01-26T20:23:54.400Z,14.30
2023-01-26T20:28:58.568Z,12.82
2023-01-26T20:34:02.189Z,14.50
2023-01-26T20:39:05.189Z,13.00
2023-01-26T20:44:08.191Z,11.48
2023-01-26T20:49:13.257Z,14.68
2023-01-26T20:54:16.824Z,23.83
2023-01-26T20:59:19.304Z,12.38
2023-01-26T21:04:21.556Z,11.50
2023-01-26T21:09:24.119Z,12.65
2023-01-26T21:14:26.384Z,14.27
2023-01-26T21:19:28.730Z,14.88
2023-01-26T21:24:30.975Z,12.45
2023-01-26T21:29:33.225Z,12.35
2023-01-26T21:34:35.480Z,12.90
2023-01-26T21:39:37.684Z,12.02
2023-01-26T21:44:59.821Z,13.20
2023-01-26T21:50:02.173Z,12.98
2023-01-26T21:55:04.575Z,12.60
2023-01-26T22:00:07.335Z,11.52
2023-01-26T22:06:00.407Z,11.52
2023-01-26T22:11:03.270Z,11.75
2023-01-26T22:16:06.145Z,12.43
2023-01-26T22:21:08.532Z,10.85
2023-01-26T22:26:16.476Z,12.52
2023-01-26T22:31:20.283Z,12.27
2023-01-26T22:36:23.878Z,12.23
2023-01-26T22:41:28.694Z,15.13
2023-01-26T22:46:32.064Z,13.30
2023-01-26T22:51:37.454Z,12.82
2023-01-26T22:56:39.901Z,12.65
2023-01-26T23:01:42.908Z,11.73
2023-01-26T23:06:45.056Z,12.48
2023-01-26T23:11:47.251Z,12.68
2023-01-26T23:16:49.463Z,11.80
2023-01-26T23:21:51.829Z,11.90
2023-01-26T23:26:54.125Z,12.05
2023-01-26T23:31:56.380Z,13.55
2023-01-26T23:36:58.613Z,12.38
2023-01-26T23:42:00.800Z,14.32
2023-01-26T23:47:03.094Z,14.63
2023-01-26T23:52:05.334Z,14.43
2023-01-26T23:57:07.523Z,14.30
